الصفحة الرئيسية
METAR-TAF:

METAR-TAF

مطار :

Grants-Milan Municipal Airport

غرانتس, نيومكسيكو, الولايات المتحدة

دائرة عرض: 35-09-55N, خط طول: 107-54-08W, ارتفاع: 1988 متر

مراقبة الطقس الحالي

تاريخ ووقت الإصدار 27 دقيقة قبل الساعة 09:55UTC
رياح هادئة
درجة الحرارة 1°درجة مئوية
الرطوبة 86%
ضغط 1019 hPa
الرؤية: 16.1 كم
غيوم مفككة على ارتفاع 11000 قدم

METAR: KGNT 220955Z AUTO 00000KT 10SM BKN110 01/M01 A3008 RMK AO2 T00101006

زمن: 04:22 (10:22 UTC)


TAF: مفقودة

أرصاد الطقس والتوقعات من أكثر من 4000 مطار (تقارير الطقس للمطار METAR والتنبؤ بالطقس بالمطارTAF).

المحطات المتاحة هي النقط الصفراء والحمراء على الخريطة.

حرك المؤشر فوق النقطة لمعرفة اسم المحطة.

ثم انقر لمعرفة أرصاد وتوقعات الطقس.

لتغيير الخارطة: اضغط على الأزرار الخضراء مع رمز الصليب الأسود للتكبير. على الزر الأخضر مع شرطة للتصغير، أو على الأسهم الخضراء للخرائط المجاورة.


METAR-TAF: